Time;durP1;ratioP1;P1;durP2;ratioP2;P2;SDS_P1;SDS_P2;PMS_P1;PMS_P2;Temp;Humidity;BMP_temperature;BMP_pressure;BME280_temperature;BME280_humidity;BME280_pressure;Samples;Min_cycle;Max_cycle;Signal;HPM_P1;HPM_P2
2023/10/20 00:04:08;;;;;;;4.50;3.70;;;;;;;11.17;100.00;99764.81;4974963;28;20113;-74
2023/10/20 00:09:55;;;;;;;5.15;4.63;;;;;;;11.02;100.00;99778.13;4974932;28;20054;-74
2023/10/20 00:12:21;;;;;;;5.07;4.18;;;;;;;11.71;100.00;99870.06;4974537;28;20039;-73
2023/10/20 00:14:46;;;;;;;6.25;3.65;;;;;;;11.90;100.00;99860.19;4972994;28;20379;-74
2023/10/20 00:17:12;;;;;;;6.47;5.00;;;;;;;11.88;100.00;99842.72;4973727;28;20034;-72
2023/10/20 00:19:38;;;;;;;14.02;3.83;;;;;;;11.16;100.00;99735.03;4974669;28;20428;-72
2023/10/20 00:22:04;;;;;;;5.38;3.85;;;;;;;11.48;100.00;99793.31;4974715;28;20041;-74
2023/10/20 00:24:29;;;;;;;6.47;4.20;;;;;;;11.84;100.00;99855.84;4973535;28;20046;-74
2023/10/20 00:27:11;;;;;;;3.95;2.20;;;;;;;11.04;100.00;99742.22;4974802;28;20022;-74
2023/10/20 00:29:37;;;;;;;3.20;2.92;;;;;;;11.52;100.00;99811.63;4971077;28;20039;-73
2023/10/20 00:32:04;;;;;;;4.40;3.92;;;;;;;10.87;100.00;99740.69;4972364;28;20126;-74
2023/10/20 00:37:51;;;;;;;9.20;3.20;;;;;;;11.40;100.00;99828.44;4974582;28;20135;-74
2023/10/20 00:40:17;;;;;;;7.72;3.70;;;;;;;10.75;100.00;99704.09;4974057;28;20062;-73
2023/10/20 00:46:04;;;;;;;2.15;1.95;;;;;;;11.53;100.00;99834.38;4974384;28;20391;-73
2023/10/20 00:48:32;;;;;;;3.15;2.78;;;;;;;11.21;100.00;99771.75;4972695;28;20065;-73
2023/10/20 00:51:00;;;;;;;3.10;2.85;;;;;;;10.94;100.00;99751.97;4974122;28;20026;-74
2023/10/20 00:53:27;;;;;;;3.42;2.90;;;;;;;11.45;100.00;99835.34;4972881;28;20034;-74
2023/10/20 00:59:14;;;;;;;3.90;3.60;;;;;;;11.76;100.00;99826.19;4974983;28;20142;-74
2023/10/20 01:01:48;;;;;;;4.47;4.07;;;;;;;11.81;100.00;99840.13;4971526;28;20039;-73
2023/10/20 01:07:35;;;;;;;4.63;3.45;;;;;;;10.91;100.00;99699.50;4972602;28;20525;-75
2023/10/20 01:10:05;;;;;;;6.28;3.75;;;;;;;11.47;100.00;99799.44;4965251;28;20142;-73
2023/10/20 01:12:34;;;;;;;2.15;2.05;;;;;;;11.73;100.00;99834.13;4969218;28;20126;-72
2023/10/20 01:14:59;;;;;;;5.03;2.45;;;;;;;10.94;100.00;99715.22;4956353;28;20479;-73
2023/10/20 01:24:08;;;;;;;4.32;3.78;;;;;;;11.83;100.00;99814.69;4974208;28;20081;-74
2023/10/20 01:26:33;;;;;;;4.38;3.40;;;;;;;11.78;100.00;99786.75;4973989;28;20452;-73
2023/10/20 01:32:49;;;;;;;3.92;2.97;;;;;;;12.22;100.00;99793.97;4972981;28;20122;-72
2023/10/20 01:39:08;;;;;;;6.45;3.92;;;;;;;11.95;100.00;99804.91;4974217;28;20320;-74
2023/10/20 01:45:35;;;;;;;3.50;2.95;;;;;;;12.15;100.00;99794.06;4974125;28;20053;-72
2023/10/20 01:48:01;;;;;;;3.25;2.97;;;;;;;11.50;100.00;99675.94;4964647;28;20379;-74
2023/10/20 01:50:26;;;;;;;0.95;0.95;;;;;;;11.97;100.00;99761.06;4971417;28;20018;-74
2023/10/20 01:52:52;;;;;;;4.68;4.28;;;;;;;12.10;100.00;99778.34;4972164;28;20121;-74
2023/10/20 01:58:39;;;;;;;5.95;3.65;;;;;;;12.25;100.00;99775.47;4972455;28;20038;-73
2023/10/20 02:01:08;;;;;;;10.55;4.65;;;;;;;12.25;100.00;99764.09;5002496;28;20035;-74
2023/10/20 02:03:33;;;;;;;7.72;6.90;;;;;;;11.94;100.00;99672.59;4969695;28;20468;-74
2023/10/20 02:12:42;;;;;;;10.82;4.90;;;;;;;12.44;100.00;99740.97;4967766;28;20037;-74
2023/10/20 02:15:08;;;;;;;8.60;5.72;;;;;;;11.51;100.00;99606.72;4968152;28;20130;-73
2023/10/20 02:17:37;;;;;;;4.07;3.67;;;;;;;11.66;100.00;99630.13;4973851;28;20037;-73
2023/10/20 02:20:03;;;;;;;4.18;2.88;;;;;;;12.34;100.00;99727.09;4976851;28;20165;-73
2023/10/20 02:22:28;;;;;;;4.50;3.88;;;;;;;11.83;100.00;99628.06;4976572;28;20476;-73
2023/10/20 02:24:54;;;;;;;2.33;2.08;;;;;;;11.83;100.00;99642.97;4976994;28;20077;-73
2023/10/20 02:27:19;;;;;;;3.13;2.80;;;;;;;11.50;100.00;99612.88;4975142;28;20443;-73
2023/10/20 02:33:06;;;;;;;9.43;3.72;;;;;;;11.76;100.00;99626.44;4975018;28;20042;-73
2023/10/20 02:35:32;;;;;;;2.55;2.03;;;;;;;11.78;100.00;99629.03;4975666;28;20379;-72
2023/10/20 02:37:57;;;;;;;4.28;3.38;;;;;;;12.40;100.00;99732.25;4976375;28;20057;-72
2023/10/20 02:43:59;;;;;;;4.53;3.58;;;;;;;11.83;100.00;99624.56;4976898;28;20141;-74
2023/10/20 02:49:46;;;;;;;4.38;3.92;;;;;;;12.13;100.00;99686.28;4976569;28;20089;-74
2023/10/20 02:55:33;;;;;;;4.75;3.55;;;;;;;12.19;100.00;99730.84;4976585;28;20046;-73
2023/10/20 03:01:21;;;;;;;4.28;3.65;;;;;;;11.25;100.00;99629.00;4976143;28;20037;-73
2023/10/20 03:03:47;;;;;;;7.88;5.05;;;;;;;11.49;100.00;99614.63;4974754;28;20535;-73
2023/10/20 03:06:12;;;;;;;5.10;3.05;;;;;;;12.03;100.00;99693.47;4974454;28;20034;-73
2023/10/20 03:08:39;;;;;;;9.00;4.78;;;;;;;12.12;100.00;99710.81;4976351;28;20038;-73
2023/10/20 03:11:06;;;;;;;10.85;4.03;;;;;;;12.01;100.00;99715.41;4974346;28;20038;-73
2023/10/20 03:13:32;;;;;;;4.32;3.95;;;;;;;11.92;100.00;99711.19;4971879;28;20058;-74
2023/10/20 03:15:57;;;;;;;7.13;4.78;;;;;;;11.22;100.00;99584.44;4971745;28;20415;-74
2023/10/20 03:18:23;;;;;;;16.10;6.15;;;;;;;10.95;100.00;99610.19;4974386;28;20436;-74
2023/10/20 03:21:07;;;;;;;6.18;3.63;;;;;;;11.55;100.00;99742.41;4976402;28;20514;-73
2023/10/20 03:23:33;;;;;;;5.22;4.75;;;;;;;10.91;100.00;99628.63;4967276;28;20039;-74
2023/10/20 03:25:58;;;;;;;5.30;4.72;;;;;;;11.52;100.00;99748.56;4967668;28;20043;-73
2023/10/20 03:28:24;;;;;;;0.65;0.50;;;;;;;11.06;100.00;99701.06;4975309;28;20035;-74
2023/10/20 03:34:11;;;;;;;4.53;4.13;;;;;;;11.50;100.00;99725.84;4973769;28;20093;-74
2023/10/20 03:36:36;;;;;;;5.25;4.85;;;;;;;11.70;100.00;99747.41;4974444;28;20070;-73
2023/10/20 03:39:02;;;;;;;3.85;3.58;;;;;;;11.78;100.00;99745.53;4975112;28;20031;-74
2023/10/20 03:41:29;;;;;;;7.22;4.50;;;;;;;11.83;100.00;99751.59;4975823;28;20034;-74
2023/10/20 03:47:17;;;;;;;3.35;3.05;;;;;;;10.71;100.00;99660.41;4974075;28;20041;-73
2023/10/20 03:49:43;;;;;;;2.00;1.27;;;;;;;11.50;100.00;99754.75;4974887;28;20039;-73
2023/10/20 03:52:11;;;;;;;6.40;5.30;;;;;;;11.50;100.00;99752.13;4973780;28;20046;-74
2023/10/20 03:54:41;;;;;;;4.95;4.45;;;;;;;11.48;100.00;99744.25;4971524;28;20042;-73
2023/10/20 03:57:06;;;;;;;1.67;1.58;;;;;;;11.56;100.00;99744.13;4973580;28;20046;-73
2023/10/20 03:59:44;;;;;;;3.08;2.42;;;;;;;11.59;100.00;99738.84;4973400;28;20063;-74
2023/10/20 04:02:11;;;;;;;4.35;3.95;;;;;;;11.65;100.00;99728.22;4974696;28;20514;-73
2023/10/20 04:04:36;;;;;;;5.45;4.53;;;;;;;11.68;100.00;99750.97;4973572;28;20082;-73
2023/10/20 04:07:02;;;;;;;7.50;5.65;;;;;;;10.96;100.00;99645.22;4970289;28;20070;-73
2023/10/20 04:10:06;;;;;;;4.72;3.00;;;;;;;11.71;100.00;99737.78;4972829;28;20050;-73
2023/10/20 04:13:13;;;;;;;3.65;3.05;;;;;;;11.69;100.00;99734.31;4965799;28;20030;-73
2023/10/20 04:15:39;;;;;;;3.67;3.38;;;;;;;11.58;100.00;99723.97;4964388;28;20034;-74
2023/10/20 04:18:05;;;;;;;8.68;5.65;;;;;;;11.30;100.00;99694.59;4967988;28;20038;-74
2023/10/20 04:20:35;;;;;;;3.42;2.80;;;;;;;11.42;100.00;99739.06;4975064;28;20031;-74
2023/10/20 04:26:22;;;;;;;6.10;5.32;;;;;;;10.85;100.00;99620.88;4975155;28;20383;-73
2023/10/20 04:28:51;;;;;;;7.75;6.28;;;;;;;11.23;100.00;99706.94;4973876;28;20050;-72
2023/10/20 04:43:34;;;;;;;5.20;3.45;;;;;;;11.58;100.00;99722.19;4970291;28;20041;-75
2023/10/20 04:57:53;;;;;;;7.93;4.88;;;;;;;11.50;100.00;99692.56;4932915;29;20047;-74
2023/10/20 05:03:46;;;;;;;21.30;5.88;;;;;;;11.53;100.00;99712.66;4968609;28;20138;-74
2023/10/20 05:06:25;;;;;;;8.68;4.80;;;;;;;11.53;100.00;99718.78;4969074;28;20471;-74
2023/10/20 05:12:12;;;;;;;6.95;6.00;;;;;;;11.53;100.00;99687.25;4973352;28;20439;-74
2023/10/20 05:17:59;;;;;;;5.25;4.85;;;;;;;11.79;100.00;99730.63;4974128;28;20045;-73
2023/10/20 05:23:55;;;;;;;7.90;5.07;;;;;;;11.82;100.00;99726.22;4971869;28;20348;-74
2023/10/20 05:26:21;;;;;;;5.85;5.10;;;;;;;11.82;100.00;99723.59;4971879;28;20030;-74
2023/10/20 05:28:46;;;;;;;0.70;0.70;;;;;;;11.99;100.00;99731.22;4970909;28;20039;-74
2023/10/20 05:31:11;;;;;;;8.25;5.10;;;;;;;11.57;100.00;99657.41;4972155;28;20039;-73
2023/10/20 05:34:20;;;;;;;8.55;5.50;;;;;;;12.02;100.00;99730.31;4971987;28;20391;-74
2023/10/20 05:40:32;;;;;;;3.85;3.55;;;;;;;12.07;100.00;99727.59;4956100;28;20122;-73
2023/10/20 05:42:57;;;;;;;17.85;6.95;;;;;;;11.48;100.00;99620.78;4968120;28;20118;-73
2023/10/20 05:45:24;;;;;;;8.10;7.30;;;;;;;12.22;100.00;99724.69;4971549;28;20031;-73
2023/10/20 05:47:50;;;;;;;6.55;4.13;;;;;;;11.84;100.00;99632.41;4971411;28;20447;-74
2023/10/20 05:50:16;;;;;;;5.32;4.15;;;;;;;12.36;100.00;99725.31;4971011;28;20155;-73
2023/10/20 05:52:41;;;;;;;5.30;4.82;;;;;;;12.25;100.00;99698.34;4974415;28;20084;-74
2023/10/20 05:55:07;;;;;;;8.77;6.68;;;;;;;11.86;100.00;99635.00;4976972;28;20451;-74
2023/10/20 06:01:12;;;;;;;8.23;7.38;;;;;;;12.63;100.00;99716.00;4975164;28;20062;-73
2023/10/20 06:03:40;;;;;;;15.00;3.58;;;;;;;12.52;100.00;99688.19;4959868;28;20038;-74
2023/10/20 06:06:06;;;;;;;6.03;5.15;;;;;;;12.28;100.00;99635.13;4974533;28;20043;-74
2023/10/20 06:08:31;;;;;;;3.90;0.93;;;;;;;12.35;100.00;99634.13;4977204;28;20022;-74
2023/10/20 06:18:14;;;;;;;5.85;5.25;;;;;;;13.23;100.00;99762.19;4977183;28;20490;-73
2023/10/20 06:20:39;;;;;;;5.72;4.65;;;;;;;12.87;100.00;99685.69;4976610;28;20467;-73
2023/10/20 06:23:05;;;;;;;6.10;2.85;;;;;;;12.84;100.00;99651.53;4974709;28;20045;-73
2023/10/20 06:25:35;;;;;;;4.15;3.75;;;;;;;13.21;100.00;99686.75;4974680;28;20038;-73
2023/10/20 06:28:34;;;;;;;3.75;3.20;;;;;;;13.65;100.00;99745.47;4961336;28;20154;-74
2023/10/20 06:31:26;;;;;;;3.25;2.95;;;;;;;13.71;100.00;99743.56;4975028;28;20034;-73
2023/10/20 06:33:52;;;;;;;7.53;5.05;;;;;;;13.13;100.00;99623.66;4973794;28;20127;-73
2023/10/20 06:37:26;;;;;;;5.65;5.15;;;;;;;13.93;100.00;99732.53;4972502;28;20041;-73
2023/10/20 06:39:51;;;;;;;5.60;4.20;;;;;;;13.54;100.00;99655.25;4959017;28;20494;-74
2023/10/20 06:42:16;;;;;;;4.95;4.35;;;;;;;13.50;100.00;99631.59;4970370;28;20041;-73
2023/10/20 06:44:49;;;;;;;4.95;4.47;;;;;;;13.57;100.00;99636.72;4974760;28;20030;-73
2023/10/20 06:47:14;;;;;;;5.05;4.47;;;;;;;14.28;100.00;99746.56;4976127;28;20074;-72
2023/10/20 06:49:40;;;;;;;5.07;4.57;;;;;;;13.73;100.00;99643.34;4968962;28;20038;-73
2023/10/20 06:56:00;;;;;;;8.27;4.00;;;;;;;14.64;100.00;99749.19;4974344;28;20340;-74
2023/10/20 07:02:40;;;;;;;5.13;4.57;;;;;;;14.90;100.00;99745.81;4975425;28;20090;-72
2023/10/20 07:08:27;;;;;;;3.78;2.88;;;;;;;15.19;100.00;99743.19;4975588;28;20499;-72
2023/10/20 07:14:45;;;;;;;2.92;2.72;;;;;;;15.45;100.00;99743.31;4975604;28;20054;-73
2023/10/20 07:20:34;;;;;;;3.78;3.00;;;;;;;15.59;100.00;99718.19;4975875;28;20066;-74
2023/10/20 07:29:50;;;;;;;2.47;1.88;;;;;;;15.37;100.00;99638.66;4972609;28;20553;-73
2023/10/20 07:32:16;;;;;;;4.03;3.13;;;;;;;15.46;100.00;99636.66;4975157;28;20035;-74
2023/10/20 07:34:43;;;;;;;4.25;1.30;;;;;;;16.20;100.00;99736.50;4973322;28;20067;-74
2023/10/20 07:40:34;;;;;;;3.78;3.47;;;;;;;15.98;100.00;99632.28;4974956;28;20123;-73
2023/10/20 07:46:43;;;;;;;3.38;2.45;;;;;;;17.11;100.00;99748.31;4974496;28;20391;-74
2023/10/20 07:49:12;;;;;;;1.88;1.40;;;;;;;17.30;100.00;99738.72;4972682;28;20134;-73
2023/10/20 07:51:41;;;;;;;1.55;1.30;;;;;;;17.39;100.00;99719.81;4974178;28;20034;-73
2023/10/20 07:54:08;;;;;;;1.25;1.15;;;;;;;17.57;100.00;99727.97;4974366;28;20073;-73
2023/10/20 07:56:36;;;;;;;3.22;2.92;;;;;;;17.57;100.00;99715.56;4973015;28;20418;-74
2023/10/20 07:59:03;;;;;;;2.17;1.67;;;;;;;17.45;100.00;99681.59;4974283;28;20039;-73
2023/10/20 08:01:29;;;;;;;1.73;1.63;;;;;;;17.20;100.00;99629.50;4973915;28;20525;-74
2023/10/20 08:03:54;;;;;;;3.38;2.55;;;;;;;17.32;100.00;99635.25;4973933;28;20038;-74
2023/10/20 08:09:41;;;;;;;2.72;2.50;;;;;;;17.92;100.00;99708.00;4972641;28;20037;-73
2023/10/20 08:12:07;;;;;;;2.10;1.92;;;;;;;17.48;100.00;99617.78;4972179;28;20042;-73
2023/10/20 08:14:33;;;;;;;2.42;2.25;;;;;;;18.06;100.00;99710.94;4973018;28;20031;-74
2023/10/20 08:17:03;;;;;;;0.95;0.85;;;;;;;17.97;100.00;99710.47;4973878;28;20047;-75
2023/10/20 08:19:29;;;;;;;0.50;0.50;;;;;;;18.02;100.00;99713.78;4974122;28;20046;-74
2023/10/20 08:21:54;;;;;;;2.63;1.90;;;;;;;17.41;100.00;99617.16;4973995;28;20034;-74
2023/10/20 08:24:20;;;;;;;1.55;0.60;;;;;;;17.44;100.00;99629.44;4972990;28;20031;-75
2023/10/20 08:30:08;;;;;;;2.85;2.40;;;;;;;17.63;100.00;99616.28;4968047;28;20426;-73
2023/10/20 08:36:34;;;;;;;0.32;0.32;;;;;;;18.48;95.11;99719.78;4972951;28;20049;-74
2023/10/20 08:45:49;;;;;;;7.28;2.22;;;;;;;18.62;95.00;99698.78;4973541;28;20123;-74
2023/10/20 08:48:15;;;;;;;0.60;0.60;;;;;;;18.33;94.50;99637.19;4969845;28;20046;-74
2023/10/20 08:50:41;;;;;;;1.42;1.33;;;;;;;19.02;94.23;99726.25;4971802;28;20459;-73
2023/10/20 08:53:11;;;;;;;1.73;1.48;;;;;;;18.66;93.80;99644.56;4971582;28;20031;-74
2023/10/20 08:56:08;;;;;;;1.30;1.20;;;;;;;19.25;94.53;99729.66;4974188;28;20042;-73
2023/10/20 09:02:08;;;;;;;4.40;3.97;;;;;;;19.72;91.75;99722.06;4968459;28;20086;-73
2023/10/20 09:04:34;;;;;;;1.45;1.17;;;;;;;19.84;91.79;99720.63;4977442;28;20054;-74
2023/10/20 09:07:00;;;;;;;1.67;1.38;;;;;;;19.52;89.74;99639.66;4973377;28;20066;-74
2023/10/20 09:12:48;;;;;;;0.90;0.75;;;;;;;20.21;90.17;99702.78;4967228;28;20050;-73
2023/10/20 09:15:13;;;;;;;1.75;1.55;;;;;;;20.26;89.31;99703.41;4972997;28;20035;-73
2023/10/20 09:17:39;;;;;;;1.85;1.33;;;;;;;19.86;87.79;99608.72;4973485;28;20329;-75
2023/10/20 09:20:13;;;;;;;2.15;1.88;;;;;;;20.49;88.53;99707.56;4969453;28;20081;-74
2023/10/20 09:26:01;;;;;;;1.08;1.08;;;;;;;19.95;89.98;99621.56;4971856;28;20045;-76
2023/10/20 09:28:27;;;;;;;3.70;2.50;;;;;;;20.41;90.13;99686.59;4976405;28;20035;-82
2023/10/20 09:30:54;;;;;;;0.65;0.55;;;;;;;20.18;94.34;99615.00;4975385;28;20050;-83
2023/10/20 09:33:21;;;;;;;0.90;0.85;;;;;;;20.74;95.16;99685.78;4977167;28;20050;-82
2023/10/20 09:36:00;;;;;;;2.20;1.63;;;;;;;20.82;90.06;99672.06;4967206;28;20055;-82
2023/10/20 09:38:35;;;;;;;1.35;1.13;;;;;;;20.69;99.44;99594.53;4970945;28;20498;-84
2023/10/20 09:41:12;;;;;;;0.77;0.77;;;;;;;20.96;92.93;99645.50;4960046;28;20043;-80
2023/10/20 09:47:23;;;;;;;1.13;0.82;;;;;;;21.24;94.18;99630.63;4960614;28;20074;-82
2023/10/20 09:49:51;;;;;;;3.03;1.20;;;;;;;21.83;100.00;99634.34;4959977;28;20047;-83
2023/10/20 09:55:40;;;;;;;0.95;0.90;;;;;;;21.11;92.75;99561.06;4979601;28;20046;-83
2023/10/20 09:58:06;;;;;;;1.65;1.35;;;;;;;21.17;90.84;99568.75;4977588;28;20047;-84
2023/10/20 10:00:34;;;;;;;3.90;3.15;;;;;;;21.00;82.67;99540.38;4979059;28;20082;-76
2023/10/20 10:03:00;;;;;;;0.82;0.75;;;;;;;21.37;81.53;99594.25;4977087;28;20133;-75
2023/10/20 10:08:47;;;;;;;16.58;2.25;;;;;;;21.54;81.96;99614.69;4979528;28;20184;-75
2023/10/20 10:11:30;;;;;;;0.38;0.30;;;;;;;21.27;78.28;99577.06;4979450;28;20372;-74
2023/10/20 10:14:04;;;;;;;0.20;0.20;;;;;;;21.03;77.85;99537.50;4976509;28;20045;-74
2023/10/20 10:19:54;;;;;;;0.38;0.35;;;;;;;21.78;76.86;99606.19;4979164;28;20371;-74
2023/10/20 10:22:28;;;;;;;3.42;0.43;;;;;;;21.40;76.01;99526.53;4978681;28;20046;-74
2023/10/20 10:24:59;;;;;;;0.30;0.30;;;;;;;21.58;77.33;99536.13;4976847;28;20043;-75
2023/10/20 10:30:54;;;;;;;0.73;0.73;;;;;;;21.64;73.20;99533.09;4979286;28;20099;-74
2023/10/20 10:33:23;;;;;;;4.57;0.85;;;;;;;22.12;72.61;99599.66;4978226;28;20039;-75
2023/10/20 10:36:01;;;;;;;3.80;1.88;;;;;;;22.21;72.46;99595.59;4978733;28;20037;-74
2023/10/20 10:46:10;;;;;;;1.65;1.27;;;;;;;22.64;69.52;99590.25;4975341;28;20058;-75
2023/10/20 10:48:37;;;;;;;1.40;1.30;;;;;;;22.31;70.09;99517.44;4971281;28;20093;-74
2023/10/20 10:51:05;;;;;;;1.33;1.23;;;;;;;23.10;66.35;99598.91;4975122;28;20023;-74
2023/10/20 10:53:31;;;;;;;0.45;0.38;;;;;;;22.78;64.73;99528.75;4974018;28;20029;-73
2023/10/20 11:00:15;;;;;;;0.93;0.85;;;;;;;23.30;63.40;99607.47;4975538;28;20133;-73
2023/10/20 11:02:45;;;;;;;0.73;0.73;;;;;;;22.87;62.50;99514.72;4972973;28;20122;-74
2023/10/20 11:05:12;;;;;;;2.65;2.03;;;;;;;23.40;62.22;99603.22;4975094;28;20061;-75
2023/10/20 11:11:00;;;;;;;2.20;1.60;;;;;;;22.78;63.24;99507.34;4974736;28;20042;-74
2023/10/20 11:16:47;;;;;;;0.35;0.35;;;;;;;23.52;61.95;99607.75;4975424;28;20379;-75
2023/10/20 11:19:14;;;;;;;1.25;1.00;;;;;;;23.47;62.67;99592.94;4974346;28;20494;-75
2023/10/20 11:21:53;;;;;;;1.38;1.20;;;;;;;23.71;61.84;99596.66;4974299;28;20039;-74
2023/10/20 11:24:39;;;;;;;1.38;1.25;;;;;;;23.66;60.65;99580.03;4974580;28;20073;-73
2023/10/20 11:27:06;;;;;;;0.73;0.52;;;;;;;23.72;58.93;99594.84;4974521;28;20458;-74
2023/10/20 11:29:35;;;;;;;2.15;1.95;;;;;;;23.67;61.36;99605.88;4973659;28;20467;-74
2023/10/20 11:35:24;;;;;;;0.63;0.63;;;;;;;23.51;60.49;99586.44;4975617;28;20090;-74
2023/10/20 11:41:32;;;;;;;1.13;1.02;;;;;;;23.10;62.52;99507.06;4975238;28;20053;-73
2023/10/20 11:47:19;;;;;;;1.83;1.73;;;;;;;23.10;62.19;99499.88;4973619;28;20132;-73
2023/10/20 11:49:45;;;;;;;2.72;1.73;;;;;;;23.74;61.25;99593.81;4973784;28;20102;-74
2023/10/20 11:52:11;;;;;;;4.20;2.58;;;;;;;23.68;59.95;99607.56;4973900;28;20034;-74
2023/10/20 11:54:37;;;;;;;1.80;1.67;;;;;;;23.72;60.61;99609.09;4971278;28;20033;-74
2023/10/20 11:57:46;;;;;;;0.98;0.93;;;;;;;23.74;60.69;99598.28;4974619;28;20030;-73
2023/10/20 12:00:13;;;;;;;1.52;0.93;;;;;;;23.66;62.83;99576.50;4971880;28;20383;-74
2023/10/20 12:02:39;;;;;;;0.90;0.90;;;;;;;23.35;61.36;99522.34;4974721;28;20041;-73
2023/10/20 12:05:06;;;;;;;1.23;1.05;;;;;;;23.77;61.84;99601.63;4974112;28;20039;-74
2023/10/20 12:07:47;;;;;;;1.50;1.40;;;;;;;23.83;59.50;99588.78;4972277;28;20042;-74
2023/10/20 12:10:13;;;;;;;2.05;1.48;;;;;;;23.37;61.29;99512.38;4973558;28;20061;-74
2023/10/20 12:12:42;;;;;;;2.33;1.48;;;;;;;23.92;61.76;99590.81;4972828;28;20147;-75
2023/10/20 12:15:08;;;;;;;0.85;0.85;;;;;;;23.26;64.81;99472.09;4971120;28;20114;-78
2023/10/20 12:17:34;;;;;;;2.30;2.10;;;;;;;23.38;61.25;99495.34;4972161;28;20117;-77
2023/10/20 12:20:00;;;;;;;0.70;0.70;;;;;;;23.91;60.93;99576.56;4972624;28;20038;-78
2023/10/20 12:22:26;;;;;;;1.40;1.25;;;;;;;23.34;58.88;99492.03;4971564;28;20050;-77
2023/10/20 12:24:51;;;;;;;1.38;1.27;;;;;;;23.88;58.37;99576.78;4972610;28;20101;-76
2023/10/20 12:27:17;;;;;;;2.72;1.25;;;;;;;23.40;60.20;99498.78;4972267;28;20141;-77
2023/10/20 12:29:43;;;;;;;1.15;1.08;;;;;;;23.77;63.24;99561.44;4971560;28;20459;-79
2023/10/20 12:32:12;;;;;;;0.68;0.68;;;;;;;23.85;61.87;99581.50;4973339;28;20054;-78
2023/10/20 12:34:38;;;;;;;8.05;2.60;;;;;;;23.84;61.90;99585.16;4973023;28;20039;-80
2023/10/20 12:37:05;;;;;;;12.75;3.30;;;;;;;23.51;61.68;99527.53;4972026;28;20050;-80
2023/10/20 12:42:52;;;;;;;0.77;0.65;;;;;;;23.24;61.80;99488.25;4973494;28;20041;-81
2023/10/20 12:48:40;;;;;;;2.45;2.25;;;;;;;23.86;60.00;99588.56;4973860;28;20114;-84
2023/10/20 12:54:28;;;;;;;0.50;0.50;;;;;;;23.29;59.14;99485.25;4974090;28;20121;-75
2023/10/20 12:57:30;;;;;;;0.30;0.30;;;;;;;23.90;59.39;99600.78;4973371;28;20029;-77
2023/10/20 13:03:19;;;;;;;1.60;1.02;;;;;;;23.08;57.72;99463.47;4971781;28;20058;-76
2023/10/20 13:05:44;;;;;;;1.63;1.52;;;;;;;23.48;58.48;99531.25;4973402;28;20041;-80
2023/10/20 13:08:13;;;;;;;1.65;1.30;;;;;;;23.66;58.42;99565.78;4972660;28;20031;-81
2023/10/20 13:10:39;;;;;;;0.57;0.57;;;;;;;23.08;58.68;99474.19;4973195;28;20054;-76
2023/10/20 13:16:26;;;;;;;0.45;0.45;;;;;;;23.20;58.28;99505.47;4973179;28;20049;-77
2023/10/20 13:22:13;;;;;;;1.50;1.40;;;;;;;23.40;59.07;99563.03;4973311;28;20081;-77
2023/10/20 13:28:03;;;;;;;1.10;1.00;;;;;;;23.20;60.31;99537.59;4953087;28;20456;-77
2023/10/20 13:30:34;;;;;;;0.45;0.45;;;;;;;23.41;61.56;99610.25;4952147;28;20118;-76
2023/10/20 13:33:03;;;;;;;0.13;0.13;;;;;;;23.22;61.15;99564.25;4972157;28;20134;-80
2023/10/20 13:35:34;;;;;;;1.65;1.55;;;;;;;22.24;62.40;99406.53;4968324;28;20034;-77
2023/10/20 13:41:23;;;;;;;0.13;0.13;;;;;;;22.57;66.54;99498.88;4971077;28;20054;-76
2023/10/20 13:43:49;;;;;;;2.00;1.35;;;;;;;23.05;67.02;99584.97;4969302;28;20038;-74
2023/10/20 13:46:18;;;;;;;1.40;1.30;;;;;;;22.60;67.05;99512.06;4969657;28;20031;-75
2023/10/20 13:52:05;;;;;;;0.65;0.65;;;;;;;22.88;68.25;99587.84;4972170;28;20097;-75
2023/10/20 13:57:52;;;;;;;0.60;0.60;;;;;;;22.45;68.32;99537.97;4973081;28;20089;-75
2023/10/20 14:03:39;;;;;;;1.45;0.65;;;;;;;22.72;68.51;99607.53;4973073;28;20075;-76
2023/10/20 14:06:06;;;;;;;0.52;0.52;;;;;;;22.80;69.35;99615.06;4973398;28;20135;-76
2023/10/20 14:08:34;;;;;;;1.25;1.15;;;;;;;22.14;73.48;99526.47;4971433;28;20035;-75
2023/10/20 14:11:00;;;;;;;1.67;1.10;;;;;;;22.14;75.39;99541.63;4971211;28;20066;-75
2023/10/20 14:13:40;;;;;;;0.73;0.73;;;;;;;22.58;76.37;99620.94;4972778;28;20347;-75
2023/10/20 14:16:05;;;;;;;2.55;2.03;;;;;;;21.98;75.06;99530.19;4966731;28;20436;-75
2023/10/20 14:18:32;;;;;;;3.90;2.90;;;;;;;22.30;77.21;99592.38;4956728;28;20082;-75
2023/10/20 14:24:19;;;;;;;0.60;0.60;;;;;;;21.96;74.86;99550.78;4956787;28;20491;-75
2023/10/20 14:26:44;;;;;;;2.80;2.03;;;;;;;22.46;73.81;99638.59;4957414;28;20050;-75
2023/10/20 14:29:10;;;;;;;0.77;0.77;;;;;;;22.04;72.37;99553.84;4956645;28;20138;-76
2023/10/20 14:31:35;;;;;;;2.78;1.45;;;;;;;21.76;71.88;99511.94;4962861;28;20036;-76
2023/10/20 14:34:03;;;;;;;0.50;0.50;;;;;;;21.84;73.37;99549.72;4975265;28;20475;-75
2023/10/20 14:36:29;;;;;;;8.05;3.38;;;;;;;21.74;74.61;99537.88;4974356;28;20046;-76
2023/10/20 14:38:54;;;;;;;1.67;1.58;;;;;;;21.71;75.05;99537.13;4974789;28;20047;-76
2023/10/20 14:41:20;;;;;;;0.82;0.82;;;;;;;21.68;76.15;99539.09;4975993;28;20078;-75
2023/10/20 14:47:07;;;;;;;3.05;1.98;;;;;;;21.46;78.69;99524.34;4975830;28;20490;-75
2023/10/20 14:49:33;;;;;;;2.05;1.55;;;;;;;21.99;81.15;99626.28;4973875;28;20035;-75
2023/10/20 14:52:00;;;;;;;3.00;0.63;;;;;;;22.03;79.32;99632.28;4974022;28;20047;-75
2023/10/20 14:54:26;;;;;;;1.60;1.42;;;;;;;21.79;79.56;99600.75;4973320;28;20113;-75
2023/10/20 15:00:13;;;;;;;0.40;0.40;;;;;;;21.24;85.66;99545.22;4975296;28;20077;-74
2023/10/20 15:16:32;;;;;;;3.90;3.22;;;;;;;21.31;94.13;99648.00;4956139;28;20046;-76
2023/10/20 15:22:20;;;;;;;3.00;2.78;;;;;;;21.08;99.38;99667.97;4971980;28;20509;-75
2023/10/20 15:24:48;;;;;;;1.35;1.27;;;;;;;21.03;100.00;99675.38;4972912;28;20039;-76
2023/10/20 15:30:35;;;;;;;3.13;1.35;;;;;;;20.19;100.00;99576.78;4975249;28;20041;-74
2023/10/20 15:33:01;;;;;;;3.00;2.80;;;;;;;20.70;100.00;99670.94;4970276;28;20030;-75
2023/10/20 15:35:28;;;;;;;5.10;4.13;;;;;;;20.13;100.00;99572.63;4973598;28;20027;-75
2023/10/20 15:38:02;;;;;;;0.90;0.82;;;;;;;20.47;100.00;99637.47;4968627;28;20062;-76
2023/10/20 15:40:28;;;;;;;7.15;2.90;;;;;;;20.33;100.00;99627.53;4971403;28;20046;-76
2023/10/20 15:42:55;;;;;;;4.05;3.70;;;;;;;20.33;100.00;99643.53;4972817;28;20105;-75
2023/10/20 15:45:20;;;;;;;4.18;2.30;;;;;;;19.73;100.00;99563.22;4974796;28;20034;-76
2023/10/20 15:47:48;;;;;;;3.60;3.28;;;;;;;18.61;100.00;99379.97;4971233;28;20451;-76
2023/10/20 15:50:14;;;;;;;1.08;0.85;;;;;;;20.15;100.00;99671.97;4970030;28;20019;-75
2023/10/20 15:52:39;;;;;;;2.50;2.30;;;;;;;19.94;100.00;99623.34;4972743;28;20491;-74
2023/10/20 15:59:00;;;;;;;3.50;2.40;;;;;;;20.11;100.00;99681.09;4971246;28;20121;-76
2023/10/20 16:02:18;;;;;;;3.67;3.38;;;;;;;20.17;100.00;99680.75;4972342;28;20145;-75
2023/10/20 16:08:05;;;;;;;4.70;2.58;;;;;;;19.36;100.00;99554.38;4974057;28;20140;-75
2023/10/20 16:10:32;;;;;;;4.10;2.47;;;;;;;20.11;100.00;99677.53;4974136;28;20046;-75
2023/10/20 16:12:58;;;;;;;4.60;4.15;;;;;;;19.93;100.00;99682.03;5003215;28;20069;-75
2023/10/20 16:15:23;;;;;;;3.80;2.05;;;;;;;19.95;100.00;99689.00;4970380;28;20479;-76
2023/10/20 16:24:33;;;;;;;4.45;3.38;;;;;;;19.75;100.00;99686.44;4972919;28;20390;-76
2023/10/20 16:26:59;;;;;;;1.80;1.70;;;;;;;19.68;100.00;99685.00;4971373;28;20026;-74
2023/10/20 16:29:25;;;;;;;3.75;2.72;;;;;;;19.55;100.00;99676.75;4974413;28;20475;-75
2023/10/20 16:31:50;;;;;;;14.75;5.38;;;;;;;19.40;100.00;99660.59;4973679;28;20494;-75
2023/10/20 16:49:59;;;;;;;14.80;3.88;;;;;;;19.19;100.00;99691.75;4973793;28;20057;-74
2023/10/20 16:52:25;;;;;;;4.63;4.22;;;;;;;19.07;100.00;99697.63;4973657;28;20113;-74
2023/10/20 16:54:53;;;;;;;5.18;4.43;;;;;;;19.10;100.00;99697.50;4973273;28;20451;-75
2023/10/20 16:57:19;;;;;;;4.60;4.20;;;;;;;18.84;100.00;99676.56;4971886;28;20039;-76
2023/10/20 17:03:08;;;;;;;4.07;3.15;;;;;;;18.27;100.00;99592.28;4973482;28;20041;-75
2023/10/20 17:05:37;;;;;;;4.55;4.20;;;;;;;18.75;100.00;99673.38;4973710;28;20046;-76
2023/10/20 17:08:04;;;;;;;4.20;3.53;;;;;;;18.76;100.00;99672.47;4973039;28;20035;-74
2023/10/20 17:10:29;;;;;;;6.88;5.25;;;;;;;18.77;100.00;99716.72;4973910;28;20146;-74